createdAt,value
2023-01-09T00:00:37.248Z,92.45
2023-01-09T00:01:44.990Z,90.32
2023-01-09T00:02:46.668Z,90.61
2023-01-09T00:03:48.383Z,90.43
2023-01-09T00:04:50.043Z,89.63
2023-01-09T00:05:51.751Z,94.07
2023-01-09T00:06:56.173Z,90.27
2023-01-09T00:07:58.346Z,91.17
2023-01-09T00:08:59.968Z,91.08
2023-01-09T00:10:01.597Z,91.51
2023-01-09T00:11:03.324Z,90.97
2023-01-09T00:12:05.183Z,94.40
2023-01-09T00:13:06.838Z,92.86
2023-01-09T00:14:10.308Z,91.86
2023-01-09T00:15:12.680Z,94.05
2023-01-09T00:16:14.416Z,92.15
2023-01-09T00:17:15.984Z,92.22
2023-01-09T00:18:17.524Z,92.59
2023-01-09T00:19:19.101Z,94.25
2023-01-09T00:20:20.707Z,93.79
2023-01-09T00:21:22.816Z,94.25
2023-01-09T00:22:24.647Z,94.89
2023-01-09T00:23:26.394Z,94.60
2023-01-09T00:24:27.961Z,91.84
2023-01-09T00:25:29.572Z,92.70
2023-01-09T00:26:31.407Z,92.75
2023-01-09T00:27:34.815Z,95.31
2023-01-09T00:28:36.929Z,91.95
2023-01-09T00:29:38.548Z,92.75
2023-01-09T00:30:40.128Z,95.88
2023-01-09T00:31:41.822Z,92.58
2023-01-09T00:32:43.515Z,91.57
2023-01-09T00:33:50.798Z,91.86
2023-01-09T00:34:52.459Z,94.31
2023-01-09T00:35:54.031Z,94.05
2023-01-09T00:36:56.472Z,91.90
2023-01-09T00:37:58.116Z,94.82
2023-01-09T00:38:59.740Z,92.21
2023-01-09T00:40:01.385Z,92.63
2023-01-09T00:41:04.643Z,91.90
2023-01-09T00:42:08.383Z,96.02
2023-01-09T00:43:10.038Z,95.22
2023-01-09T00:44:27.757Z,92.75
2023-01-09T00:45:29.732Z,92.21
2023-01-09T00:46:35.783Z,91.37
2023-01-09T00:47:43.075Z,95.30
2023-01-09T00:48:45.745Z,94.74
2023-01-09T00:49:48.011Z,95.59
2023-01-09T00:50:49.693Z,94.27
2023-01-09T00:51:51.568Z,91.88
2023-01-09T00:52:54.584Z,95.11
2023-01-09T00:53:56.402Z,93.09
2023-01-09T00:54:59.037Z,92.87
2023-01-09T00:56:01.466Z,95.80
2023-01-09T00:57:03.152Z,92.89
2023-01-09T00:58:04.926Z,93.73
2023-01-09T00:59:07.412Z,94.19
2023-01-09T01:00:10.116Z,91.98
2023-01-09T01:01:12.329Z,94.22
2023-01-09T01:02:14.287Z,94.82
2023-01-09T01:03:16.095Z,94.52
2023-01-09T01:04:36.385Z,95.79
2023-01-09T01:05:56.325Z,95.34
2023-01-09T01:07:16.616Z,93.68
2023-01-09T01:08:19.492Z,95.14
2023-01-09T01:09:21.095Z,93.98
2023-01-09T01:10:24.737Z,93.85
2023-01-09T01:11:26.424Z,92.68
2023-01-09T01:12:28.011Z,93.15
2023-01-09T01:13:29.583Z,93.49
2023-01-09T01:14:31.235Z,92.65
2023-01-09T01:15:32.916Z,93.05
2023-01-09T01:16:34.504Z,92.95
2023-01-09T01:17:37.684Z,93.34
2023-01-09T01:18:40.054Z,94.38
2023-01-09T01:19:41.753Z,92.38
2023-01-09T01:20:44.698Z,93.47
2023-01-09T01:21:46.249Z,93.10
2023-01-09T01:22:47.924Z,94.68
2023-01-09T01:23:49.499Z,93.73
2023-01-09T01:24:51.156Z,92.77
2023-01-09T01:25:52.753Z,95.37
2023-01-09T01:26:54.385Z,93.82
2023-01-09T01:27:55.989Z,93.47
2023-01-09T01:28:59.335Z,93.17
2023-01-09T01:30:01.058Z,94.10
2023-01-09T01:31:03.184Z,92.06
2023-01-09T01:32:04.964Z,92.20
2023-01-09T01:33:06.558Z,93.47
2023-01-09T01:34:08.210Z,91.98
2023-01-09T01:35:10.446Z,92.41
2023-01-09T01:36:12.093Z,92.88
2023-01-09T01:37:13.737Z,92.84
2023-01-09T01:38:15.337Z,92.84
2023-01-09T01:39:17.324Z,96.34
2023-01-09T01:40:19.124Z,97.35
2023-01-09T01:41:29.667Z,94.87
2023-01-09T01:42:31.628Z,95.10
2023-01-09T01:43:53.219Z,94.19
2023-01-09T01:44:57.547Z,92.66
2023-01-09T01:45:59.259Z,92.54
2023-01-09T01:47:00.925Z,95.74
2023-01-09T01:48:07.221Z,93.09
2023-01-09T01:49:14.266Z,95.13
2023-01-09T01:51:04.297Z,93.78
2023-01-09T01:52:06.076Z,91.59
2023-01-09T01:53:17.687Z,93.10
2023-01-09T01:54:24.073Z,94.69
2023-01-09T01:55:25.749Z,95.34
2023-01-09T01:56:57.383Z,94.25
2023-01-09T01:58:01.862Z,92.76
2023-01-09T01:59:09.357Z,96.12
2023-01-09T02:00:14.113Z,95.40
2023-01-09T02:01:16.227Z,93.52
2023-01-09T02:02:23.335Z,96.76
2023-01-09T02:03:27.240Z,94.83
2023-01-09T02:04:29.609Z,92.77
2023-01-09T02:05:31.383Z,92.12
2023-01-09T02:06:34.524Z,93.02
2023-01-09T02:07:36.092Z,93.89
2023-01-09T02:08:37.768Z,94.18
2023-01-09T02:09:40.820Z,93.29
2023-01-09T02:10:42.628Z,95.31
2023-01-09T02:11:46.077Z,96.35
2023-01-09T02:12:47.632Z,93.85
2023-01-09T02:13:49.482Z,95.13
2023-01-09T02:15:05.251Z,92.80
2023-01-09T02:16:19.259Z,96.01
2023-01-09T02:17:29.832Z,94.27
2023-01-09T02:18:37.730Z,94.48
2023-01-09T02:20:05.195Z,92.77
2023-01-09T02:21:16.014Z,96.17
2023-01-09T02:22:26.372Z,95.97
2023-01-09T02:23:36.983Z,95.42
2023-01-09T02:25:00.157Z,94.85
2023-01-09T02:26:04.733Z,93.81
2023-01-09T02:27:18.493Z,95.31
2023-01-09T02:28:26.151Z,94.92
2023-01-09T02:29:55.423Z,96.26
2023-01-09T02:31:06.191Z,94.53
2023-01-09T02:32:16.260Z,95.64
2023-01-09T02:33:43.302Z,93.07
2023-01-09T02:35:21.387Z,94.61
2023-01-09T02:36:52.844Z,93.64
2023-01-09T02:38:08.556Z,93.24
2023-01-09T02:39:21.530Z,93.31
2023-01-09T02:40:31.091Z,93.24
2023-01-09T02:41:42.128Z,93.68
2023-01-09T02:42:44.603Z,93.56
2023-01-09T02:43:46.207Z,93.22
2023-01-09T02:44:47.824Z,92.48
2023-01-09T02:45:49.381Z,94.23
2023-01-09T02:47:29.671Z,92.73
2023-01-09T02:48:31.468Z,92.20
2023-01-09T02:49:35.559Z,92.67
2023-01-09T02:50:43.614Z,92.65
2023-01-09T02:52:14.393Z,92.76
2023-01-09T02:53:37.265Z,93.73
2023-01-09T02:54:48.052Z,91.37
2023-01-09T02:55:58.336Z,92.10
2023-01-09T02:57:14.666Z,90.76
2023-01-09T02:58:22.359Z,92.16
2023-01-09T02:59:34.702Z,91.29
2023-01-09T03:00:41.552Z,92.10
2023-01-09T03:02:04.900Z,90.92
2023-01-09T03:03:45.568Z,92.65
2023-01-09T03:04:56.591Z,91.96
2023-01-09T03:06:12.981Z,92.26
2023-01-09T03:07:24.562Z,91.47
2023-01-09T03:08:35.285Z,92.29
2023-01-09T03:09:37.640Z,90.08
2023-01-09T03:10:48.130Z,90.93
2023-01-09T03:11:57.718Z,91.40
2023-01-09T03:13:00.800Z,90.54
2023-01-09T03:14:08.557Z,90.33
2023-01-09T03:15:13.191Z,91.06
2023-01-09T03:16:21.104Z,90.40
2023-01-09T03:17:33.552Z,90.76
2023-01-09T03:18:36.470Z,91.69
2023-01-09T03:19:38.578Z,90.77
2023-01-09T03:20:41.132Z,90.48
2023-01-09T03:21:42.724Z,90.62
2023-01-09T03:22:54.563Z,90.07
2023-01-09T03:23:58.418Z,90.59
2023-01-09T03:25:00.033Z,89.57
2023-01-09T03:26:01.611Z,90.79
2023-01-09T03:27:03.257Z,90.26
2023-01-09T03:28:08.946Z,89.51
2023-01-09T03:29:10.675Z,91.59
2023-01-09T03:30:12.625Z,91.92
2023-01-09T03:31:14.650Z,90.94
2023-01-09T03:32:16.250Z,90.14
2023-01-09T03:33:17.940Z,89.71
2023-01-09T03:34:19.564Z,90.24
2023-01-09T03:35:21.242Z,90.60
2023-01-09T03:36:23.324Z,90.54
2023-01-09T03:37:24.857Z,90.03
2023-01-09T03:38:26.433Z,90.25
2023-01-09T03:39:28.023Z,90.52
2023-01-09T03:40:29.627Z,90.14
2023-01-09T03:41:31.257Z,91.59
2023-01-09T03:42:32.857Z,90.32
2023-01-09T03:43:35.245Z,90.95
2023-01-09T03:44:36.865Z,90.95
2023-01-09T03:45:38.649Z,90.26
2023-01-09T03:46:40.335Z,90.31
2023-01-09T03:47:41.940Z,90.85
2023-01-09T03:48:43.637Z,91.26
2023-01-09T03:49:45.333Z,90.21
2023-01-09T03:50:53.919Z,89.89
2023-01-09T03:51:55.492Z,91.37
2023-01-09T03:52:57.269Z,91.21
2023-01-09T03:53:58.853Z,91.52
2023-01-09T03:55:00.460Z,91.05
2023-01-09T03:56:02.095Z,90.15
2023-01-09T03:57:03.680Z,92.05
2023-01-09T03:58:05.303Z,90.18
2023-01-09T03:59:07.156Z,90.10
2023-01-09T04:00:09.699Z,89.65
2023-01-09T04:01:14.709Z,90.79
2023-01-09T04:02:17.530Z,90.79
2023-01-09T04:03:20.376Z,89.65
2023-01-09T04:04:21.975Z,90.73
2023-01-09T04:05:23.612Z,90.35
2023-01-09T04:06:25.249Z,89.54
2023-01-09T04:07:26.972Z,89.78
2023-01-09T04:08:28.581Z,89.50
2023-01-09T04:09:30.194Z,91.26
2023-01-09T04:10:32.155Z,89.97
2023-01-09T04:11:33.748Z,91.56
2023-01-09T04:12:35.355Z,89.69
2023-01-09T04:13:36.982Z,90.30
2023-01-09T04:14:38.570Z,89.61
2023-01-09T04:15:40.299Z,89.33
2023-01-09T04:16:41.947Z,90.02
2023-01-09T04:17:43.533Z,89.45
2023-01-09T04:18:45.160Z,89.28
2023-01-09T04:19:46.785Z,89.06
2023-01-09T04:20:48.762Z,89.63
2023-01-09T04:21:50.366Z,89.13
2023-01-09T04:22:51.985Z,88.96
2023-01-09T04:23:53.662Z,88.42
2023-01-09T04:24:55.357Z,87.62
2023-01-09T04:25:56.968Z,87.95
2023-01-09T04:26:59.500Z,88.55
2023-01-09T04:28:01.179Z,87.60
2023-01-09T04:29:02.784Z,87.43
2023-01-09T04:30:05.234Z,88.11
2023-01-09T04:31:06.808Z,87.71
2023-01-09T04:32:08.549Z,87.29
2023-01-09T04:33:10.148Z,87.11
2023-01-09T04:34:11.735Z,87.61
2023-01-09T04:35:13.416Z,87.15
2023-01-09T04:36:14.962Z,87.30
2023-01-09T04:37:16.547Z,87.58
2023-01-09T04:38:18.292Z,86.97
2023-01-09T04:39:19.951Z,87.44
2023-01-09T04:40:21.560Z,87.79
2023-01-09T04:41:41.825Z,86.88
2023-01-09T04:42:43.468Z,87.15
2023-01-09T04:43:45.092Z,87.16
2023-01-09T04:44:46.672Z,88.03
2023-01-09T04:45:48.277Z,87.65
2023-01-09T04:46:49.985Z,87.12
2023-01-09T04:47:51.579Z,87.49
2023-01-09T04:48:53.151Z,87.53
2023-01-09T04:49:54.794Z,88.10
2023-01-09T04:50:56.401Z,88.07
2023-01-09T04:51:58.084Z,88.04
2023-01-09T04:52:59.761Z,87.62
2023-01-09T04:54:01.397Z,88.83
2023-01-09T04:55:03.114Z,87.84
2023-01-09T04:56:05.074Z,88.81
2023-01-09T04:57:06.919Z,88.53
2023-01-09T04:58:08.918Z,88.96
2023-01-09T04:59:10.572Z,88.46
2023-01-09T05:00:12.720Z,88.96
2023-01-09T05:01:14.535Z,88.58
2023-01-09T05:02:16.276Z,88.47
2023-01-09T05:03:17.944Z,88.20
2023-01-09T05:04:19.577Z,88.16
2023-01-09T05:05:21.205Z,88.90
2023-01-09T05:06:22.814Z,88.26
2023-01-09T05:07:24.404Z,88.88
2023-01-09T05:08:26.040Z,89.07
2023-01-09T05:09:27.761Z,89.78
2023-01-09T05:10:29.364Z,89.78
2023-01-09T05:11:31.576Z,89.30
2023-01-09T05:12:34.701Z,89.99
2023-01-09T05:13:36.308Z,90.63
2023-01-09T05:14:37.945Z,91.74
2023-01-09T05:15:39.527Z,90.67
2023-01-09T05:16:41.210Z,90.65
2023-01-09T05:17:42.853Z,90.20
2023-01-09T05:18:44.586Z,90.33
2023-01-09T05:19:46.173Z,89.75
2023-01-09T05:20:47.803Z,90.57
2023-01-09T05:21:49.460Z,89.67
2023-01-09T05:22:51.043Z,89.77
2023-01-09T05:23:52.752Z,90.37
2023-01-09T05:24:54.310Z,89.28
2023-01-09T05:25:55.993Z,89.45
2023-01-09T05:26:58.472Z,90.02
2023-01-09T05:28:01.392Z,89.35
2023-01-09T05:29:03.038Z,88.83
2023-01-09T05:30:04.993Z,88.36
2023-01-09T05:31:06.622Z,88.49
2023-01-09T05:32:08.241Z,87.95
2023-01-09T05:33:09.870Z,88.10
2023-01-09T05:34:11.534Z,88.74
2023-01-09T05:35:13.170Z,88.46
2023-01-09T05:36:15.241Z,89.59
2023-01-09T05:37:16.927Z,88.03
2023-01-09T05:38:18.577Z,86.64
2023-01-09T05:39:20.471Z,88.17
2023-01-09T05:40:24.867Z,87.75
2023-01-09T05:41:30.632Z,86.76
2023-01-09T05:42:33.187Z,86.25
2023-01-09T05:43:34.713Z,86.88
2023-01-09T05:44:36.317Z,87.32
2023-01-09T05:45:38.105Z,86.42
2023-01-09T05:46:39.753Z,87.22
2023-01-09T05:47:41.328Z,86.43
2023-01-09T05:48:44.490Z,85.92
2023-01-09T05:49:46.083Z,85.88
2023-01-09T05:50:47.987Z,85.47
2023-01-09T05:51:49.661Z,85.23
2023-01-09T05:52:51.307Z,85.28
2023-01-09T05:53:52.891Z,85.22
2023-01-09T05:54:54.456Z,83.30
2023-01-09T05:55:56.090Z,84.22
2023-01-09T05:56:57.740Z,84.96
2023-01-09T05:57:59.415Z,84.12
2023-01-09T05:59:01.066Z,83.98
2023-01-09T06:00:03.101Z,82.91
2023-01-09T06:01:08.539Z,83.07
2023-01-09T06:02:10.588Z,82.61
2023-01-09T06:03:12.335Z,83.63
2023-01-09T06:04:13.989Z,82.75
2023-01-09T06:05:15.741Z,83.54
2023-01-09T06:06:17.378Z,83.13
2023-01-09T06:07:22.043Z,84.17
2023-01-09T06:08:24.951Z,84.00
2023-01-09T06:09:26.594Z,82.91
2023-01-09T06:10:28.235Z,83.55
2023-01-09T06:11:29.925Z,83.24
2023-01-09T06:12:31.645Z,84.13
2023-01-09T06:13:33.298Z,84.09
2023-01-09T06:14:34.922Z,83.90
2023-01-09T06:15:36.560Z,83.90
2023-01-09T06:16:38.340Z,84.03
2023-01-09T06:17:39.940Z,84.98
2023-01-09T06:18:41.602Z,83.54
2023-01-09T06:19:43.261Z,84.72
2023-01-09T06:20:45.979Z,84.33
2023-01-09T06:21:47.587Z,84.67
2023-01-09T06:22:52.012Z,83.79
2023-01-09T06:23:53.653Z,84.31
2023-01-09T06:24:55.284Z,86.30
2023-01-09T06:25:56.957Z,84.73
2023-01-09T06:26:58.561Z,84.31
2023-01-09T06:28:00.201Z,85.15
2023-01-09T06:29:02.137Z,84.84
2023-01-09T06:30:04.211Z,85.14
2023-01-09T06:31:06.063Z,84.31
2023-01-09T06:32:07.808Z,84.77
2023-01-09T06:33:09.407Z,85.39
2023-01-09T06:34:11.036Z,85.58
2023-01-09T06:35:12.721Z,84.96
2023-01-09T06:36:14.498Z,85.48
2023-01-09T06:37:16.170Z,86.18
2023-01-09T06:38:17.849Z,86.24
2023-01-09T06:39:19.489Z,86.61
2023-01-09T06:40:21.314Z,86.12
2023-01-09T06:41:23.025Z,86.84
2023-01-09T06:42:24.664Z,87.36
2023-01-09T06:43:26.471Z,86.97
2023-01-09T06:44:28.056Z,87.18
2023-01-09T06:45:29.616Z,88.29
2023-01-09T06:46:31.266Z,89.07
2023-01-09T06:47:33.786Z,89.84
2023-01-09T06:48:35.415Z,89.28
2023-01-09T06:49:37.052Z,89.69
2023-01-09T06:50:38.641Z,88.45
2023-01-09T06:51:40.293Z,88.76
2023-01-09T06:52:41.952Z,88.67
2023-01-09T06:53:43.527Z,88.34
2023-01-09T06:54:45.136Z,87.60
2023-01-09T06:55:46.798Z,88.36
2023-01-09T06:56:48.365Z,88.31
2023-01-09T06:57:49.954Z,87.92
2023-01-09T06:58:51.630Z,88.52
2023-01-09T06:59:53.402Z,88.29
2023-01-09T07:00:56.296Z,88.71
2023-01-09T07:01:58.007Z,89.77
2023-01-09T07:03:00.362Z,88.83
2023-01-09T07:04:02.005Z,90.31
2023-01-09T07:05:07.574Z,88.25
2023-01-09T07:06:09.194Z,87.30
2023-01-09T07:07:10.902Z,87.83
2023-01-09T07:08:12.719Z,88.38
2023-01-09T07:09:14.464Z,88.09
2023-01-09T07:10:16.164Z,88.92
2023-01-09T07:11:17.794Z,87.60
2023-01-09T07:12:19.466Z,87.29
2023-01-09T07:13:21.115Z,87.43
2023-01-09T07:14:22.720Z,87.76
2023-01-09T07:15:24.303Z,87.15
2023-01-09T07:16:25.885Z,87.73
2023-01-09T07:17:27.658Z,87.75
2023-01-09T07:18:29.272Z,88.75
2023-01-09T07:19:31.411Z,87.50
2023-01-09T07:20:33.018Z,87.77
2023-01-09T07:21:34.721Z,87.38
2023-01-09T07:22:36.443Z,87.91
2023-01-09T07:23:38.065Z,87.59
2023-01-09T07:24:39.792Z,88.31
2023-01-09T07:25:44.306Z,88.77
2023-01-09T07:26:46.440Z,88.01
2023-01-09T07:27:48.243Z,88.48
2023-01-09T07:28:49.958Z,87.77
2023-01-09T07:29:53.338Z,87.68
2023-01-09T07:30:55.083Z,88.04
2023-01-09T07:31:57.202Z,88.22
2023-01-09T07:32:58.923Z,88.04
2023-01-09T07:34:00.557Z,87.96
2023-01-09T07:35:02.139Z,87.88
2023-01-09T07:36:03.933Z,88.76
2023-01-09T07:37:05.469Z,88.97
2023-01-09T07:38:07.130Z,87.84
2023-01-09T07:39:09.245Z,88.49
2023-01-09T07:40:11.227Z,88.18
2023-01-09T07:41:12.826Z,87.57
2023-01-09T07:42:14.798Z,87.39
2023-01-09T07:43:16.494Z,86.93
2023-01-09T07:44:18.110Z,87.41
2023-01-09T07:45:20.129Z,86.83
2023-01-09T07:46:21.885Z,88.17
2023-01-09T07:47:23.516Z,88.95
2023-01-09T07:48:25.197Z,89.05
2023-01-09T07:49:27.043Z,89.55
2023-01-09T07:50:28.633Z,89.95
2023-01-09T07:51:30.251Z,90.12
2023-01-09T07:52:31.847Z,89.86
2023-01-09T07:53:33.451Z,89.86
2023-01-09T07:54:35.102Z,90.94
2023-01-09T07:55:36.762Z,90.96
2023-01-09T07:56:39.529Z,89.69
2023-01-09T07:57:41.166Z,90.46
2023-01-09T07:58:42.755Z,91.17
2023-01-09T07:59:44.348Z,91.15
2023-01-09T08:00:45.980Z,90.07
2023-01-09T08:01:47.790Z,90.45
2023-01-09T08:02:53.472Z,90.67
2023-01-09T08:03:55.186Z,90.81
2023-01-09T08:04:56.941Z,90.72
2023-01-09T08:05:58.528Z,90.64
2023-01-09T08:07:00.137Z,91.73
2023-01-09T08:08:02.019Z,91.56
2023-01-09T08:09:03.760Z,90.75
2023-01-09T08:10:05.758Z,90.94
2023-01-09T08:11:07.300Z,91.40
2023-01-09T08:12:08.915Z,91.74
2023-01-09T08:13:10.622Z,91.13
2023-01-09T08:14:12.254Z,90.81
2023-01-09T08:15:14.218Z,91.62
2023-01-09T08:16:16.082Z,91.42
2023-01-09T08:17:17.616Z,90.71
2023-01-09T08:18:19.191Z,90.92
2023-01-09T08:19:20.933Z,90.24
2023-01-09T08:20:22.625Z,90.24
2023-01-09T08:21:24.316Z,90.31
2023-01-09T08:22:25.889Z,90.59
2023-01-09T08:23:27.502Z,90.27
2023-01-09T08:24:30.268Z,89.87
2023-01-09T08:25:32.148Z,89.22
2023-01-09T08:26:33.737Z,90.21
2023-01-09T08:27:35.265Z,89.95
2023-01-09T08:28:36.917Z,89.92
2023-01-09T08:29:38.522Z,89.20
2023-01-09T08:30:40.180Z,90.05
2023-01-09T08:31:41.800Z,89.39
2023-01-09T08:32:43.771Z,88.89
2023-01-09T08:33:45.334Z,88.50
2023-01-09T08:34:46.962Z,87.64
2023-01-09T08:35:48.912Z,88.35
2023-01-09T08:36:50.677Z,88.47
2023-01-09T08:37:52.339Z,87.93
2023-01-09T08:38:54.030Z,88.48
2023-01-09T08:39:56.458Z,88.02
2023-01-09T08:40:58.045Z,88.03
2023-01-09T08:42:18.233Z,88.01
2023-01-09T08:43:38.373Z,88.30
2023-01-09T08:44:58.559Z,88.16
2023-01-09T08:46:19.474Z,87.30
2023-01-09T08:47:22.851Z,86.85
2023-01-09T08:48:24.377Z,86.04
2023-01-09T08:49:25.995Z,86.75
2023-01-09T08:50:27.561Z,86.01
2023-01-09T08:51:29.237Z,86.41
2023-01-09T08:52:31.100Z,86.33
2023-01-09T08:53:32.648Z,85.84
2023-01-09T08:54:36.809Z,86.30
2023-01-09T08:55:39.071Z,85.52
2023-01-09T08:56:40.728Z,84.73
2023-01-09T08:57:50.148Z,84.80
2023-01-09T08:58:51.756Z,85.17
2023-01-09T08:59:53.414Z,84.39
2023-01-09T09:00:55.041Z,84.50
2023-01-09T09:01:57.283Z,83.62
2023-01-09T09:03:01.121Z,83.19
2023-01-09T09:04:05.337Z,83.17
2023-01-09T09:05:07.305Z,82.74
2023-01-09T09:06:08.903Z,83.13
2023-01-09T09:07:10.537Z,83.25
2023-01-09T09:08:12.616Z,82.98
2023-01-09T09:09:14.280Z,82.86
2023-01-09T09:10:18.660Z,82.72
2023-01-09T09:11:20.262Z,81.83
2023-01-09T09:12:22.365Z,81.88
2023-01-09T09:13:23.930Z,82.01
2023-01-09T09:14:44.316Z,81.74
2023-01-09T09:15:45.965Z,81.86
2023-01-09T09:16:47.885Z,82.18
2023-01-09T09:18:00.815Z,82.14
2023-01-09T09:19:02.425Z,81.94
2023-01-09T09:20:04.823Z,81.12
2023-01-09T09:21:06.386Z,82.30
2023-01-09T09:22:07.997Z,81.59
2023-01-09T09:23:09.523Z,81.70
2023-01-09T09:24:11.211Z,82.25
2023-01-09T09:25:12.903Z,82.11
2023-01-09T09:26:14.538Z,81.19
2023-01-09T09:27:16.154Z,81.59
2023-01-09T09:28:17.792Z,81.02
2023-01-09T09:29:19.470Z,81.92
2023-01-09T09:30:21.236Z,82.26
2023-01-09T09:31:22.906Z,81.49
2023-01-09T09:32:24.536Z,81.65
2023-01-09T09:33:26.222Z,81.82
2023-01-09T09:34:27.835Z,82.11
2023-01-09T09:35:31.091Z,82.40
2023-01-09T09:36:32.890Z,81.92
2023-01-09T09:37:35.016Z,81.42
2023-01-09T09:38:36.628Z,80.58
2023-01-09T09:39:38.341Z,81.35
2023-01-09T09:41:30.338Z,80.85
2023-01-09T09:43:12.683Z,80.44
2023-01-09T09:44:53.363Z,80.28
2023-01-09T09:46:29.058Z,80.63
2023-01-09T09:47:43.425Z,80.06
2023-01-09T09:48:52.025Z,80.21
2023-01-09T09:50:30.797Z,79.86
2023-01-09T09:52:21.641Z,79.83
2023-01-09T09:53:35.367Z,81.37
2023-01-09T09:54:41.527Z,79.95
2023-01-09T09:55:45.147Z,80.34
2023-01-09T09:56:50.653Z,81.24
2023-01-09T09:57:53.186Z,82.91
2023-01-09T09:58:56.604Z,79.67
2023-01-09T09:59:58.313Z,82.56
2023-01-09T10:01:01.595Z,83.70
2023-01-09T10:02:09.208Z,79.85
2023-01-09T10:03:20.529Z,80.22
2023-01-09T10:04:32.115Z,80.63
2023-01-09T10:05:37.285Z,79.67
2023-01-09T10:06:45.078Z,79.71
2023-01-09T10:07:51.172Z,79.90
2023-01-09T10:09:03.941Z,79.69
2023-01-09T10:10:11.201Z,79.41
2023-01-09T10:11:16.642Z,79.23
2023-01-09T10:12:34.446Z,80.42
2023-01-09T10:13:54.455Z,79.86
2023-01-09T10:14:58.337Z,78.94
2023-01-09T10:16:08.918Z,79.92
2023-01-09T10:17:25.855Z,80.05
2023-01-09T10:18:48.559Z,79.69
2023-01-09T10:19:56.110Z,79.63
2023-01-09T10:21:12.980Z,80.90
2023-01-09T10:22:20.235Z,80.60
2023-01-09T10:23:37.662Z,78.52
2023-01-09T10:24:54.234Z,78.44
2023-01-09T10:26:48.442Z,79.30
2023-01-09T10:28:04.982Z,78.93
2023-01-09T10:29:19.557Z,78.36
2023-01-09T10:30:33.295Z,78.35
2023-01-09T10:31:40.782Z,78.74
2023-01-09T10:33:03.201Z,77.83
2023-01-09T10:34:27.638Z,77.23
2023-01-09T10:35:48.436Z,77.07
2023-01-09T10:36:53.086Z,77.05
2023-01-09T10:37:57.531Z,76.91
2023-01-09T10:39:04.208Z,76.44
2023-01-09T10:40:23.341Z,76.91
2023-01-09T10:41:36.817Z,76.33
2023-01-09T10:42:45.041Z,76.96
2023-01-09T10:43:55.607Z,75.58
2023-01-09T10:45:05.537Z,75.72
2023-01-09T10:46:26.019Z,75.69
2023-01-09T10:47:34.421Z,75.20
2023-01-09T10:48:38.052Z,75.42
2023-01-09T10:49:39.739Z,75.33
2023-01-09T10:50:45.832Z,74.93
2023-01-09T10:51:49.071Z,76.15
2023-01-09T10:52:53.484Z,75.25
2023-01-09T10:53:56.090Z,75.21
2023-01-09T10:55:05.500Z,75.99
2023-01-09T10:56:21.558Z,74.62
2023-01-09T10:57:44.348Z,74.46
2023-01-09T10:58:46.661Z,74.11
2023-01-09T10:59:48.223Z,73.89
2023-01-09T11:00:51.018Z,74.44
2023-01-09T11:01:53.647Z,74.49
2023-01-09T11:02:55.423Z,75.08
2023-01-09T11:03:59.199Z,73.76
2023-01-09T11:05:00.989Z,74.58
2023-01-09T11:06:03.372Z,74.41
2023-01-09T11:07:11.536Z,75.23
2023-01-09T11:08:23.283Z,74.90
2023-01-09T11:09:24.925Z,75.55
2023-01-09T11:10:52.148Z,74.85
2023-01-09T11:11:53.828Z,75.10
2023-01-09T11:13:14.441Z,74.09
2023-01-09T11:14:18.201Z,73.85
2023-01-09T11:15:31.529Z,73.01
2023-01-09T11:16:33.193Z,74.03
2023-01-09T11:17:34.717Z,73.41
2023-01-09T11:18:41.137Z,74.48
2023-01-09T11:20:01.091Z,74.03
2023-01-09T11:21:27.592Z,73.21
2023-01-09T11:22:29.485Z,73.26
2023-01-09T11:23:33.974Z,72.87
2023-01-09T11:24:35.616Z,72.75
2023-01-09T11:25:52.885Z,72.89
2023-01-09T11:27:12.437Z,72.74
2023-01-09T11:28:14.013Z,71.81
2023-01-09T11:29:17.811Z,72.34
2023-01-09T11:30:26.153Z,72.80
2023-01-09T11:31:28.984Z,72.53
2023-01-09T11:32:30.933Z,71.85
2023-01-09T11:33:37.910Z,71.77
2023-01-09T11:34:39.586Z,72.06
2023-01-09T11:36:07.892Z,71.75
2023-01-09T11:37:11.909Z,72.42
2023-01-09T11:38:16.851Z,72.07
2023-01-09T11:39:26.285Z,71.58
2023-01-09T11:40:28.328Z,72.43
2023-01-09T11:41:35.274Z,72.38
2023-01-09T11:42:51.822Z,71.81
2023-01-09T11:43:55.546Z,71.98
2023-01-09T11:44:58.841Z,71.02
2023-01-09T11:46:06.411Z,70.43
2023-01-09T11:47:25.721Z,70.82
2023-01-09T11:48:54.813Z,70.94
2023-01-09T11:50:18.996Z,73.01
2023-01-09T11:51:25.831Z,71.72
2023-01-09T11:52:27.454Z,71.19
2023-01-09T11:53:29.499Z,70.90
2023-01-09T11:54:32.872Z,69.92
2023-01-09T11:55:41.742Z,69.64
2023-01-09T11:56:44.379Z,70.43
2023-01-09T11:57:45.952Z,70.02
2023-01-09T11:58:47.710Z,69.63
2023-01-09T11:59:49.372Z,69.75
2023-01-09T12:01:21.497Z,69.64
2023-01-09T12:02:30.547Z,70.18
2023-01-09T12:04:05.801Z,70.01
2023-01-09T12:05:27.751Z,70.56
2023-01-09T12:06:57.392Z,70.19
2023-01-09T12:08:07.755Z,70.99
2023-01-09T12:09:29.290Z,69.77
2023-01-09T12:10:39.598Z,69.16
2023-01-09T12:11:53.104Z,70.51
2023-01-09T12:13:21.311Z,69.56
2023-01-09T12:14:40.941Z,67.88
2023-01-09T12:15:57.564Z,68.64
2023-01-09T12:17:38.286Z,69.31
2023-01-09T12:19:21.853Z,69.86
2023-01-09T12:20:51.642Z,69.14
2023-01-09T12:22:17.769Z,69.34
2023-01-09T12:23:35.303Z,68.33
2023-01-09T12:25:04.746Z,68.82
2023-01-09T12:26:37.147Z,68.23
2023-01-09T12:28:00.378Z,69.38
2023-01-09T12:29:04.882Z,68.66
2023-01-09T12:30:21.548Z,67.42
2023-01-09T12:31:48.216Z,67.11
2023-01-09T12:32:52.582Z,67.45
2023-01-09T12:34:06.739Z,67.84
2023-01-09T12:35:33.221Z,68.00
2023-01-09T12:36:45.573Z,67.94
2023-01-09T12:38:05.636Z,67.35
2023-01-09T12:39:07.185Z,68.19
2023-01-09T12:40:24.047Z,67.87
2023-01-09T12:41:37.064Z,68.01
2023-01-09T12:43:03.180Z,68.24
2023-01-09T12:44:30.739Z,68.55
2023-01-09T12:45:58.964Z,68.35
2023-01-09T12:47:29.821Z,68.40
2023-01-09T12:48:51.786Z,68.29
2023-01-09T12:50:12.123Z,68.63
2023-01-09T12:51:40.869Z,69.46
2023-01-09T12:52:46.380Z,69.66
2023-01-09T12:54:14.404Z,68.80
2023-01-09T12:55:19.978Z,69.70
2023-01-09T12:56:26.434Z,70.62
2023-01-09T12:57:32.712Z,70.01
2023-01-09T12:58:52.150Z,69.39
2023-01-09T13:00:00.165Z,69.69
2023-01-09T13:01:05.678Z,70.10
2023-01-09T13:02:27.736Z,69.01
2023-01-09T13:03:42.209Z,69.44
2023-01-09T13:04:51.403Z,69.67
2023-01-09T13:05:53.645Z,70.26
2023-01-09T13:06:59.136Z,70.12
2023-01-09T13:08:04.746Z,70.29
2023-01-09T13:09:06.243Z,69.32
2023-01-09T13:10:23.385Z,69.99
2023-01-09T13:11:27.659Z,70.12
2023-01-09T13:12:33.637Z,69.94
2023-01-09T13:14:01.868Z,70.67
2023-01-09T13:15:30.897Z,69.83
2023-01-09T13:16:36.201Z,70.03
2023-01-09T13:17:43.784Z,69.46
2023-01-09T13:19:07.416Z,69.72
2023-01-09T13:20:22.026Z,68.96
2023-01-09T13:21:23.918Z,69.14
2023-01-09T13:22:27.893Z,69.35
2023-01-09T13:23:42.507Z,69.74
2023-01-09T13:25:01.773Z,68.85
2023-01-09T13:26:14.891Z,69.05
2023-01-09T13:27:19.155Z,68.86
2023-01-09T13:28:28.083Z,68.88
2023-01-09T13:29:33.139Z,67.42
2023-01-09T13:30:46.971Z,67.86
2023-01-09T13:32:13.417Z,68.28
2023-01-09T13:33:24.013Z,68.67
2023-01-09T13:34:28.031Z,68.95
2023-01-09T13:35:29.711Z,69.15
2023-01-09T13:36:34.004Z,69.28
2023-01-09T13:37:36.710Z,69.43
2023-01-09T13:38:38.723Z,68.09
2023-01-09T13:39:40.275Z,67.96
2023-01-09T13:40:41.910Z,68.28
2023-01-09T13:42:06.755Z,67.02
2023-01-09T13:43:11.285Z,67.92
2023-01-09T13:44:22.701Z,66.84
2023-01-09T13:45:29.131Z,68.30
2023-01-09T13:46:40.040Z,67.74
2023-01-09T13:47:41.617Z,67.65
2023-01-09T13:48:43.423Z,66.94
2023-01-09T13:49:47.997Z,66.54
2023-01-09T13:50:51.008Z,67.23
2023-01-09T13:51:56.267Z,67.03
2023-01-09T13:53:37.715Z,66.78
2023-01-09T13:55:11.744Z,67.63
2023-01-09T13:56:14.519Z,66.86
2023-01-09T13:57:18.678Z,65.86
2023-01-09T13:58:22.624Z,66.11
2023-01-09T13:59:27.408Z,66.86
2023-01-09T14:00:28.943Z,67.10
2023-01-09T14:01:39.854Z,68.38
2023-01-09T14:02:42.089Z,66.50
2023-01-09T14:03:43.698Z,66.59
2023-01-09T14:04:45.435Z,67.63
2023-01-09T14:05:46.943Z,67.24
2023-01-09T14:07:14.385Z,67.44
2023-01-09T14:08:18.952Z,67.66
2023-01-09T14:09:22.436Z,67.61
2023-01-09T14:10:29.976Z,67.61
2023-01-09T14:11:31.673Z,68.22
2023-01-09T14:12:40.653Z,67.83
2023-01-09T14:13:46.592Z,67.87